Time;durP1;ratioP1;P1;durP2;ratioP2;P2;SDS_P1;SDS_P2;PMS_P1;PMS_P2;Temp;Humidity;BMP_temperature;BMP_pressure;BME280_temperature;BME280_humidity;BME280_pressure;Samples;Min_cycle;Max_cycle;Signal;HPM_P1;HPM_P2
2022/06/29 00:00:32;;;;;;;8.02;2.67;;;;;;;16.78;76.67;101607.00;4973462;28;20027;-41
2022/06/29 00:02:57;;;;;;;6.05;2.70;;;;;;;16.78;76.44;101604.38;4957350;28;20057;-42
2022/06/29 00:05:25;;;;;;;7.57;2.55;;;;;;;16.75;76.63;101606.56;4974681;28;20023;-43
2022/06/29 00:07:51;;;;;;;6.95;2.50;;;;;;;16.76;76.80;101595.13;4973383;28;20478;-40
2022/06/29 00:10:17;;;;;;;4.55;2.40;;;;;;;16.77;76.41;101594.94;4974584;28;20030;-40
2022/06/29 00:12:44;;;;;;;9.02;2.72;;;;;;;16.63;76.38;101599.41;4974489;28;20495;-42
2022/06/29 00:15:11;;;;;;;7.03;2.58;;;;;;;16.56;76.61;101580.34;4974899;28;20034;-42
2022/06/29 00:17:36;;;;;;;4.97;2.55;;;;;;;16.66;76.22;101595.56;4974623;28;20033;-41
2022/06/29 00:20:04;;;;;;;7.38;2.45;;;;;;;16.71;75.88;101595.72;4974633;28;20027;-41
2022/06/29 00:22:30;;;;;;;10.27;2.75;;;;;;;16.65;76.03;101586.13;4973389;28;20039;-41
2022/06/29 00:24:56;;;;;;;5.35;2.40;;;;;;;16.60;75.77;101589.38;4989456;28;20053;-40
2022/06/29 00:27:23;;;;;;;6.03;2.40;;;;;;;16.62;76.45;101596.97;4974831;28;20019;-42
2022/06/29 00:29:48;;;;;;;8.75;2.60;;;;;;;16.56;76.55;101589.97;4974489;28;20027;-43
2022/06/29 00:32:14;;;;;;;6.45;2.92;;;;;;;16.54;76.11;101589.38;4973073;28;20041;-40
2022/06/29 00:34:39;;;;;;;4.28;2.50;;;;;;;16.46;76.19;101585.22;4974378;28;20388;-40
2022/06/29 00:37:04;;;;;;;6.20;2.60;;;;;;;16.56;75.93;101587.38;4974132;28;20035;-41
2022/06/29 00:39:31;;;;;;;6.40;2.50;;;;;;;16.52;76.00;101587.00;4974788;28;20046;-42
2022/06/29 00:41:56;;;;;;;8.00;2.50;;;;;;;16.35;76.99;101578.03;4974681;28;20081;-43
2022/06/29 00:44:22;;;;;;;6.22;2.65;;;;;;;16.20;77.14;101565.22;4974553;28;20031;-41
2022/06/29 00:46:50;;;;;;;6.60;2.33;;;;;;;16.39;76.47;101576.59;4974316;28;20035;-41
2022/06/29 00:49:16;;;;;;;6.18;2.50;;;;;;;16.29;75.91;101578.84;4974628;28;20051;-41
2022/06/29 00:51:48;;;;;;;6.32;2.47;;;;;;;16.17;75.75;101574.25;4974277;28;20019;-40
2022/06/29 00:54:24;;;;;;;6.10;2.60;;;;;;;16.24;76.22;101574.22;4974183;28;20400;-41
2022/06/29 00:56:51;;;;;;;6.93;2.60;;;;;;;16.23;76.69;101570.81;4974499;28;20524;-41
2022/06/29 00:59:25;;;;;;;5.75;2.58;;;;;;;16.14;76.32;101566.84;4974498;28;20498;-41
2022/06/29 01:01:50;;;;;;;6.68;2.63;;;;;;;16.02;76.28;101563.25;4977807;28;20027;-42
2022/06/29 01:04:16;;;;;;;7.07;2.60;;;;;;;16.06;77.21;101563.66;4978139;28;20033;-43
2022/06/29 01:06:42;;;;;;;9.85;2.67;;;;;;;16.21;76.12;101553.78;4977794;28;20019;-48
2022/06/29 01:09:07;;;;;;;3.78;2.33;;;;;;;16.27;75.87;101546.94;4977836;28;20311;-41
2022/06/29 01:11:33;;;;;;;8.10;2.75;;;;;;;16.20;75.25;101558.19;4977620;28;20102;-42
2022/06/29 01:14:00;;;;;;;7.78;2.40;;;;;;;16.23;75.70;101549.97;4977573;28;20034;-45
2022/06/29 01:16:26;;;;;;;5.40;2.45;;;;;;;16.18;75.77;101557.59;4977512;28;20505;-41
2022/06/29 01:18:52;;;;;;;7.85;2.72;;;;;;;16.11;75.29;101551.63;4977517;28;20031;-41
2022/06/29 01:21:19;;;;;;;5.68;2.60;;;;;;;16.09;75.97;101552.81;4977798;28;20023;-40
2022/06/29 01:23:44;;;;;;;8.05;2.67;;;;;;;15.75;76.17;101529.41;4978006;28;20026;-41
2022/06/29 01:26:11;;;;;;;10.02;2.90;;;;;;;15.97;77.24;101547.44;4977734;28;20359;-40
2022/06/29 01:28:39;;;;;;;6.18;2.60;;;;;;;16.01;76.47;101551.22;4977313;28;20038;-42
2022/06/29 01:31:12;;;;;;;5.38;2.58;;;;;;;15.96;76.69;101551.81;4977570;28;20509;-41
2022/06/29 01:33:38;;;;;;;5.65;2.40;;;;;;;15.89;76.95;101556.25;4977356;28;20030;-40
2022/06/29 01:36:03;;;;;;;8.43;2.80;;;;;;;15.77;77.04;101555.28;4977207;28;20170;-40
2022/06/29 01:38:28;;;;;;;6.40;2.75;;;;;;;15.73;76.48;101549.66;4977535;28;20454;-41
2022/06/29 01:40:53;;;;;;;5.72;2.58;;;;;;;15.78;77.25;101547.25;4977424;28;20030;-38
2022/06/29 01:43:19;;;;;;;6.40;2.78;;;;;;;15.81;77.14;101545.25;4977162;28;20023;-40
2022/06/29 01:45:44;;;;;;;5.72;2.60;;;;;;;15.71;76.58;101543.84;4977081;28;20035;-41
2022/06/29 01:48:09;;;;;;;9.15;3.10;;;;;;;15.85;75.68;101542.00;4977092;28;20459;-41
2022/06/29 01:50:35;;;;;;;5.18;2.70;;;;;;;15.96;74.26;101543.19;4977238;28;20026;-41
2022/06/29 01:53:00;;;;;;;5.47;2.72;;;;;;;15.93;74.15;101541.81;4975788;28;20113;-42
2022/06/29 01:55:25;;;;;;;5.90;2.58;;;;;;;15.96;74.01;101540.59;4977203;28;20110;-43
2022/06/29 01:57:50;;;;;;;5.03;2.80;;;;;;;15.81;75.54;101537.44;4976808;28;20027;-40
2022/06/29 02:00:16;;;;;;;7.45;2.70;;;;;;;15.53;76.78;101541.00;4976846;28;20030;-41
2022/06/29 02:02:41;;;;;;;8.68;2.78;;;;;;;15.58;76.07;101534.19;4975597;28;20480;-39
2022/06/29 02:05:08;;;;;;;5.60;2.50;;;;;;;15.57;77.36;101524.78;4977002;28;20074;-41
2022/06/29 02:07:33;;;;;;;7.25;2.97;;;;;;;15.47;77.29;101528.81;4977012;28;20507;-41
2022/06/29 02:09:59;;;;;;;7.63;2.50;;;;;;;15.31;77.08;101528.22;4976756;28;20019;-42
2022/06/29 02:12:25;;;;;;;5.72;2.70;;;;;;;15.39;77.87;101526.41;4976081;28;20077;-42
2022/06/29 02:14:51;;;;;;;6.00;2.75;;;;;;;15.40;77.96;101517.59;4976909;28;20038;-42
2022/06/29 02:17:16;;;;;;;4.18;2.60;;;;;;;15.52;78.16;101515.97;4976605;28;20022;-41
2022/06/29 02:19:41;;;;;;;4.95;2.70;;;;;;;15.65;77.03;101520.38;4976486;28;20105;-42
2022/06/29 02:22:07;;;;;;;3.88;2.55;;;;;;;15.53;77.22;101518.38;4976473;28;20026;-39
2022/06/29 02:24:32;;;;;;;6.45;2.72;;;;;;;15.40;77.44;101515.00;4975097;28;20031;-39
2022/06/29 02:26:57;;;;;;;4.82;2.70;;;;;;;15.34;78.29;101514.78;4976361;28;20097;-42
2022/06/29 02:29:22;;;;;;;5.32;2.50;;;;;;;15.36;78.72;101519.78;4976584;28;20479;-40
2022/06/29 02:34:43;;;;;;;4.90;2.80;;;;;;;15.28;78.55;101514.78;4976439;28;20078;-40
2022/06/29 02:37:13;;;;;;;7.50;2.60;;;;;;;15.29;78.25;101505.97;4976138;28;20054;-40
2022/06/29 02:39:38;;;;;;;7.50;2.50;;;;;;;15.29;78.35;101496.34;4976376;28;20034;-41
2022/06/29 02:42:05;;;;;;;5.93;2.80;;;;;;;15.33;77.64;101500.16;4976314;28;20463;-40
2022/06/29 02:44:30;;;;;;;6.00;2.72;;;;;;;15.25;77.57;101494.38;4976228;28;20074;-41
2022/06/29 02:46:55;;;;;;;3.67;2.63;;;;;;;15.23;78.31;101501.56;4975931;28;20019;-40
2022/06/29 02:49:21;;;;;;;8.27;2.80;;;;;;;15.21;78.22;101498.34;4976220;28;20484;-42
2022/06/29 02:51:46;;;;;;;5.90;3.13;;;;;;;15.14;78.93;101500.16;4975793;28;20022;-41
2022/06/29 02:54:12;;;;;;;8.10;3.03;;;;;;;15.15;79.18;101502.56;4976133;28;20444;-41
2022/06/29 02:56:37;;;;;;;6.70;2.95;;;;;;;15.12;79.17;101506.34;4975690;28;20084;-42
2022/06/29 02:59:02;;;;;;;4.35;2.50;;;;;;;15.06;79.10;101496.75;4976224;28;20023;-43
2022/06/29 03:01:28;;;;;;;5.13;2.83;;;;;;;15.14;79.80;101497.56;4974547;28;20058;-41
2022/06/29 03:03:53;;;;;;;5.97;2.58;;;;;;;14.89;79.40;101491.09;4975801;28;20088;-42
2022/06/29 03:06:18;;;;;;;4.18;2.70;;;;;;;14.93;80.45;101491.50;4975658;28;20100;-41
2022/06/29 03:08:44;;;;;;;8.45;2.80;;;;;;;14.94;80.36;101490.53;4975500;28;20190;-42
2022/06/29 03:11:11;;;;;;;7.85;3.10;;;;;;;14.95;79.97;101484.31;4975475;28;20022;-38
2022/06/29 03:13:36;;;;;;;9.50;2.97;;;;;;;14.97;80.56;101484.94;4975779;28;20366;-42
2022/06/29 03:16:01;;;;;;;7.30;2.88;;;;;;;14.83;79.73;101473.69;4975490;28;20030;-41
2022/06/29 03:18:27;;;;;;;8.57;3.15;;;;;;;14.87;81.07;101477.50;4975671;28;20030;-42
2022/06/29 03:20:52;;;;;;;6.38;2.95;;;;;;;14.89;80.69;101474.69;4974122;28;20547;-40
2022/06/29 03:23:17;;;;;;;4.05;2.88;;;;;;;14.75;81.04;101475.69;4974722;28;20031;-42
2022/06/29 03:25:43;;;;;;;6.30;3.25;;;;;;;14.80;81.26;101468.88;4975541;28;20058;-42
2022/06/29 03:28:09;;;;;;;6.38;3.00;;;;;;;14.68;80.85;101467.06;4975247;28;20109;-41
2022/06/29 03:30:34;;;;;;;7.88;3.00;;;;;;;14.73;81.32;101456.84;4975724;28;20373;-41
2022/06/29 03:32:59;;;;;;;8.07;3.10;;;;;;;14.75;81.53;101452.25;4975368;28;20019;-43
2022/06/29 03:35:25;;;;;;;4.88;3.00;;;;;;;14.81;80.58;101452.25;4975453;28;20094;-42
2022/06/29 03:37:50;;;;;;;5.25;3.17;;;;;;;14.95;80.67;101454.88;4973667;28;20050;-40
2022/06/29 03:40:16;;;;;;;6.50;3.28;;;;;;;14.92;80.21;101448.28;4975275;28;20042;-42
2022/06/29 03:42:41;;;;;;;6.40;3.13;;;;;;;14.97;80.29;101448.50;4975024;28;20105;-42
2022/06/29 03:45:07;;;;;;;6.43;3.22;;;;;;;14.92;80.57;101447.47;4974873;28;20150;-42
2022/06/29 03:47:33;;;;;;;5.32;3.10;;;;;;;14.99;80.45;101445.66;4973723;28;20114;-41
2022/06/29 03:49:58;;;;;;;7.82;3.20;;;;;;;14.97;80.25;101450.28;4975191;28;20161;-41
2022/06/29 03:52:23;;;;;;;6.57;3.00;;;;;;;15.01;80.46;101451.47;4974830;28;20026;-43
2022/06/29 03:54:49;;;;;;;5.68;3.03;;;;;;;15.01;79.81;101447.06;4975203;28;20031;-43
2022/06/29 03:57:14;;;;;;;4.85;3.08;;;;;;;15.05;80.10;101445.69;4975128;28;20456;-41
2022/06/29 03:59:39;;;;;;;6.75;3.08;;;;;;;14.94;80.50;101448.09;4975307;28;20019;-43
2022/06/29 04:02:04;;;;;;;5.13;3.35;;;;;;;14.86;80.93;101455.06;4974947;28;20354;-41
2022/06/29 04:04:30;;;;;;;5.72;3.50;;;;;;;14.99;80.33;101443.88;4989732;28;20034;-39
2022/06/29 04:06:55;;;;;;;5.53;3.15;;;;;;;15.12;80.45;101441.28;4975067;28;20034;-42
2022/06/29 04:09:20;;;;;;;6.75;3.10;;;;;;;14.99;78.92;101425.66;4974977;28;20030;-43
2022/06/29 04:11:48;;;;;;;10.00;3.30;;;;;;;15.16;79.52;101441.66;4974894;28;20369;-41
2022/06/29 04:14:18;;;;;;;5.13;3.08;;;;;;;15.06;79.73;101443.88;4974863;28;20069;-42
2022/06/29 04:16:43;;;;;;;6.88;3.20;;;;;;;15.16;80.15;101449.47;4973380;28;20033;-41
2022/06/29 04:19:09;;;;;;;5.22;2.80;;;;;;;15.21;80.24;101444.47;4974895;28;20022;-39
2022/06/29 04:21:34;;;;;;;6.30;3.65;;;;;;;15.24;78.93;101444.06;4974898;28;20026;-42
2022/06/29 04:23:59;;;;;;;6.57;3.50;;;;;;;15.38;78.35;101444.06;4974537;28;20387;-41
2022/06/29 04:26:25;;;;;;;4.20;3.10;;;;;;;15.48;77.28;101432.25;4974855;28;20023;-41
2022/06/29 04:28:50;;;;;;;6.20;3.40;;;;;;;15.55;78.89;101430.41;4973316;28;20034;-42
2022/06/29 04:31:15;;;;;;;5.93;3.40;;;;;;;15.67;77.17;101429.78;4974920;28;20393;-42
2022/06/29 04:33:41;;;;;;;5.55;3.40;;;;;;;15.68;75.73;101429.63;4975116;28;20147;-42
2022/06/29 04:36:06;;;;;;;8.57;3.67;;;;;;;15.66;75.99;101441.22;4978178;28;20433;-41
2022/06/29 04:38:31;;;;;;;8.23;3.70;;;;;;;15.67;75.49;101435.78;4993392;28;20039;-43
2022/06/29 04:40:59;;;;;;;7.38;3.20;;;;;;;15.78;75.87;101440.41;4978501;28;20076;-38
2022/06/29 04:43:26;;;;;;;7.63;3.63;;;;;;;15.80;75.28;101440.22;4978695;28;20475;-42
2022/06/29 04:48:35;;;;;;;7.32;3.53;;;;;;;15.73;75.63;101423.78;4978974;28;20041;-38
2022/06/29 04:51:00;;;;;;;6.22;3.70;;;;;;;15.80;75.24;101432.41;4976739;28;20473;-45
2022/06/29 04:53:26;;;;;;;6.22;3.38;;;;;;;15.92;75.59;101424.72;4977913;28;20054;-43
2022/06/29 04:55:51;;;;;;;5.53;3.40;;;;;;;15.92;74.33;101415.09;4978416;28;20019;-45
2022/06/29 04:58:16;;;;;;;7.07;3.40;;;;;;;16.06;74.28;101428.88;4978209;28;20069;-43
2022/06/29 05:00:42;;;;;;;7.20;3.78;;;;;;;16.19;74.05;101420.97;4978184;28;20469;-44
2022/06/29 05:03:07;;;;;;;7.18;3.90;;;;;;;16.29;73.31;101414.53;4977815;28;20023;-42
2022/06/29 05:05:33;;;;;;;9.38;3.83;;;;;;;16.36;74.12;101420.50;4992822;28;20033;-42
2022/06/29 05:07:58;;;;;;;9.27;3.88;;;;;;;16.43;73.38;101413.47;4976475;28;20161;-41
2022/06/29 05:10:23;;;;;;;5.40;3.70;;;;;;;16.55;73.07;101409.16;4977990;28;20041;-42
2022/06/29 05:12:49;;;;;;;5.57;3.30;;;;;;;16.60;72.96;101414.56;4978052;28;20097;-39
2022/06/29 05:15:14;;;;;;;8.50;3.85;;;;;;;16.71;72.80;101418.28;4978251;28;20041;-41
2022/06/29 05:17:39;;;;;;;9.15;3.85;;;;;;;16.82;71.99;101419.44;4977556;28;20432;-42
2022/06/29 05:20:09;;;;;;;7.38;3.80;;;;;;;16.84;72.06;101409.59;4977684;28;20023;-41
2022/06/29 05:22:35;;;;;;;5.95;3.72;;;;;;;16.95;72.18;101408.91;4976926;28;20098;-43
2022/06/29 05:25:01;;;;;;;5.85;3.47;;;;;;;17.10;71.92;101408.56;4977542;28;20054;-41
2022/06/29 05:27:26;;;;;;;5.78;3.80;;;;;;;17.15;72.29;101408.72;4976312;28;20022;-42
2022/06/29 05:29:52;;;;;;;10.55;4.00;;;;;;;17.12;71.49;101403.94;4977223;28;20022;-43
2022/06/29 05:32:17;;;;;;;5.30;3.47;;;;;;;17.57;69.54;101412.28;4978195;28;20019;-42
2022/06/29 05:34:42;;;;;;;5.75;3.67;;;;;;;19.77;62.60;101412.44;4977218;28;20096;-43
2022/06/29 05:37:08;;;;;;;5.88;3.10;;;;;;;23.42;52.86;101411.34;4977397;28;20039;-41
2022/06/29 05:39:33;;;;;;;5.70;2.85;;;;;;;26.45;44.21;101405.22;4976562;28;20027;-43
2022/06/29 05:41:58;;;;;;;6.88;2.80;;;;;;;29.25;37.72;101406.88;4976953;28;20037;-42
2022/06/29 05:44:24;;;;;;;7.80;3.08;;;;;;;29.06;37.33;101398.22;4976080;28;20019;-44
2022/06/29 05:46:49;;;;;;;9.40;2.58;;;;;;;28.35;38.43;101399.19;4975940;28;20031;-44
2022/06/29 05:49:14;;;;;;;5.70;2.50;;;;;;;28.03;38.13;101399.19;4976113;28;20117;-44
2022/06/29 05:51:40;;;;;;;7.05;2.53;;;;;;;28.92;36.45;101396.31;4976715;28;20062;-43
2022/06/29 05:54:06;;;;;;;7.25;2.30;;;;;;;29.95;35.69;101391.50;4976924;28;20046;-41
2022/06/29 05:56:31;;;;;;;4.00;2.45;;;;;;;30.97;34.22;101387.03;4976841;28;20073;-42
2022/06/29 05:58:56;;;;;;;4.67;2.20;;;;;;;30.40;34.34;101389.63;4977269;28;20373;-43
2022/06/29 06:01:22;;;;;;;5.73;2.60;;;;;;;28.91;36.53;101384.09;4976958;28;20254;-44
2022/06/29 06:03:47;;;;;;;5.15;2.45;;;;;;;31.19;33.79;101388.81;4976766;28;20278;-43
2022/06/29 06:06:12;;;;;;;7.10;2.45;;;;;;;31.42;32.43;101394.84;4976505;28;20033;-41
2022/06/29 06:08:38;;;;;;;5.18;2.50;;;;;;;31.36;33.11;101390.75;4976381;28;20029;-42
2022/06/29 06:11:03;;;;;;;7.07;2.50;;;;;;;30.79;32.64;101380.88;4976643;28;20026;-42
2022/06/29 06:13:28;;;;;;;4.05;2.60;;;;;;;30.91;33.21;101390.16;4976501;28;20037;-42
2022/06/29 06:15:54;;;;;;;5.38;2.40;;;;;;;31.86;32.08;101392.16;4976673;28;20419;-43
2022/06/29 06:18:19;;;;;;;5.88;2.80;;;;;;;32.54;30.91;101382.44;4976534;28;20038;-41
2022/06/29 06:20:44;;;;;;;5.82;2.60;;;;;;;30.96;33.20;101384.69;4976317;28;20031;-42
2022/06/29 06:23:10;;;;;;;4.95;2.72;;;;;;;31.10;33.04;101387.22;4976772;28;20110;-40
2022/06/29 06:25:35;;;;;;;4.68;2.50;;;;;;;31.25;33.59;101394.81;4976058;28;20030;-43
2022/06/29 06:28:00;;;;;;;4.85;2.65;;;;;;;31.55;32.36;101387.00;4976357;28;20452;-43
2022/06/29 06:30:27;;;;;;;4.97;2.50;;;;;;;29.63;34.95;101380.78;4975957;28;20051;-41
2022/06/29 06:32:53;;;;;;;8.57;2.70;;;;;;;31.10;33.50;101382.66;4975486;28;20477;-43
2022/06/29 06:35:21;;;;;;;4.28;2.47;;;;;;;31.43;32.97;101380.38;4976201;28;20030;-43
2022/06/29 06:37:47;;;;;;;5.85;3.10;;;;;;;31.08;33.05;101384.09;4976051;28;20050;-44
2022/06/29 06:42:57;;;;;;;7.85;2.80;;;;;;;26.43;41.03;101380.88;4976336;28;20041;-43
2022/06/29 06:45:23;;;;;;;5.80;2.47;;;;;;;24.90;45.85;101381.69;4976225;28;20113;-40
2022/06/29 06:47:49;;;;;;;9.10;2.80;;;;;;;25.50;44.69;101374.63;4976325;28;20027;-42
2022/06/29 06:50:14;;;;;;;5.70;2.70;;;;;;;25.14;46.34;101371.31;4976052;28;20485;-42
2022/06/29 06:52:41;;;;;;;8.57;2.50;;;;;;;25.21;45.10;101366.56;4975982;28;20037;-44
2022/06/29 06:55:07;;;;;;;5.40;2.40;;;;;;;25.41;44.45;101363.81;4976093;28;20026;-42
2022/06/29 06:57:32;;;;;;;10.82;2.78;;;;;;;24.71;45.32;101362.97;4974808;28;20029;-43
2022/06/29 06:59:57;;;;;;;7.20;2.58;;;;;;;24.74;45.08;101368.53;4975636;28;20085;-43
2022/06/29 07:02:22;;;;;;;12.35;2.60;;;;;;;25.10;44.68;101373.69;4975747;28;20094;-44
2022/06/29 07:04:48;;;;;;;9.90;2.40;;;;;;;25.79;44.78;101368.63;4976080;28;20022;-43
2022/06/29 07:07:14;;;;;;;6.75;2.45;;;;;;;25.51;44.64;101370.91;4975493;28;20109;-41
2022/06/29 07:09:39;;;;;;;4.55;2.20;;;;;;;25.05;44.79;101379.00;4975555;28;20035;-42
2022/06/29 07:12:05;;;;;;;6.25;2.00;;;;;;;25.32;45.29;101373.38;4975768;28;20031;-42
2022/06/29 07:14:30;;;;;;;3.85;2.08;;;;;;;25.60;44.07;101360.53;4975366;28;20186;-42
2022/06/29 07:16:56;;;;;;;6.28;2.28;;;;;;;25.75;43.94;101362.28;4975547;28;20051;-41
2022/06/29 07:19:22;;;;;;;5.63;2.20;;;;;;;25.34;45.11;101365.16;4975357;28;20026;-42
2022/06/29 07:21:47;;;;;;;4.55;2.30;;;;;;;25.63;43.30;101363.41;4975323;28;20030;-44
2022/06/29 07:24:13;;;;;;;4.05;1.95;;;;;;;25.02;44.33;101368.19;4975344;28;20050;-43
2022/06/29 07:26:38;;;;;;;7.78;2.00;;;;;;;26.00;45.06;101364.00;4975528;28;20027;-44
2022/06/29 07:29:04;;;;;;;7.70;2.00;;;;;;;26.17;43.31;101360.97;4975103;28;20022;-42
2022/06/29 07:31:29;;;;;;;8.57;2.15;;;;;;;25.76;44.65;101363.88;4975141;28;20027;-42
2022/06/29 07:33:54;;;;;;;9.40;1.95;;;;;;;26.00;42.61;101366.66;4975186;28;20023;-42
2022/06/29 07:36:20;;;;;;;7.35;2.25;;;;;;;25.72;43.46;101365.47;4975020;28;20058;-42
2022/06/29 07:38:45;;;;;;;9.60;2.33;;;;;;;25.97;43.03;101346.03;4975625;28;20062;-43
2022/06/29 07:41:10;;;;;;;6.90;1.80;;;;;;;25.29;43.03;101368.63;4975225;28;20058;-45
2022/06/29 07:43:36;;;;;;;4.28;1.88;;;;;;;25.94;42.89;101367.75;4975161;28;20030;-44
2022/06/29 07:46:02;;;;;;;4.78;1.90;;;;;;;26.60;42.61;101363.78;4973348;28;20504;-43
2022/06/29 07:48:27;;;;;;;6.30;1.80;;;;;;;26.53;42.24;101361.47;4974704;28;20035;-43
2022/06/29 07:50:53;;;;;;;4.50;1.80;;;;;;;26.77;42.86;101361.50;4975668;28;20022;-45
2022/06/29 07:53:19;;;;;;;5.18;2.10;;;;;;;27.28;41.51;101358.28;4975143;28;20022;-42
2022/06/29 07:55:44;;;;;;;3.20;1.80;;;;;;;26.84;40.82;101366.44;4974830;28;20035;-41
2022/06/29 07:58:14;;;;;;;4.80;2.03;;;;;;;27.26;41.73;101364.94;4974239;28;20117;-44
2022/06/29 08:00:40;;;;;;;4.38;1.80;;;;;;;27.29;40.79;101357.19;4974973;28;20038;-43
2022/06/29 08:03:06;;;;;;;4.55;1.77;;;;;;;27.09;41.92;101357.41;4974707;28;20029;-44
2022/06/29 08:05:32;;;;;;;5.57;1.60;;;;;;;26.72;39.98;101357.00;4974942;28;20110;-43
2022/06/29 08:07:57;;;;;;;3.78;1.95;;;;;;;26.91;40.40;101357.09;4973361;28;20033;-43
2022/06/29 08:10:23;;;;;;;6.90;1.95;;;;;;;27.21;41.01;101358.59;4974381;28;20029;-43
2022/06/29 08:12:48;;;;;;;5.30;1.60;;;;;;;27.39;40.19;101354.41;4989912;28;20026;-42
2022/06/29 08:15:16;;;;;;;3.53;1.65;;;;;;;28.21;38.72;101349.75;4974737;28;20385;-41
2022/06/29 08:17:41;;;;;;;3.30;1.70;;;;;;;27.92;38.40;101349.97;4975314;28;20097;-43
2022/06/29 08:20:07;;;;;;;2.25;1.40;;;;;;;27.21;39.89;101353.28;4974815;28;20450;-42
2022/06/29 08:22:33;;;;;;;2.45;1.60;;;;;;;27.44;38.68;101351.66;4975028;28;20045;-41
2022/06/29 08:24:58;;;;;;;4.25;1.85;;;;;;;27.28;38.20;101352.97;4974923;28;20030;-42
2022/06/29 08:27:24;;;;;;;5.72;1.63;;;;;;;27.05;38.41;101349.25;4974914;28;20018;-41
2022/06/29 08:29:49;;;;;;;6.63;1.65;;;;;;;26.93;38.93;101348.84;4974269;28;20034;-41
2022/06/29 08:32:15;;;;;;;5.22;1.75;;;;;;;27.73;38.07;101348.06;4974269;28;20107;-43
2022/06/29 08:34:41;;;;;;;2.95;1.38;;;;;;;27.74;36.73;101328.41;4974215;28;20045;-43
2022/06/29 08:37:06;;;;;;;5.68;2.20;;;;;;;28.34;37.88;101344.47;4956924;28;20042;-42
2022/06/29 08:39:32;;;;;;;5.32;1.70;;;;;;;28.40;37.68;101339.84;4973145;28;20069;-42
2022/06/29 08:42:01;;;;;;;4.85;1.90;;;;;;;27.70;36.98;101335.38;4974436;28;20115;-42
2022/06/29 08:44:29;;;;;;;2.90;1.60;;;;;;;28.43;36.24;101338.50;4975202;28;20365;-43
2022/06/29 08:46:54;;;;;;;4.20;1.60;;;;;;;28.46;34.79;101337.91;4974078;28;20102;-43
2022/06/29 08:49:21;;;;;;;3.78;1.48;;;;;;;28.74;35.86;101328.06;4974256;28;20064;-42
2022/06/29 08:51:48;;;;;;;6.25;1.80;;;;;;;28.14;36.21;101336.84;4974446;28;20022;-41
2022/06/29 08:54:15;;;;;;;6.57;1.60;;;;;;;29.13;34.33;101335.53;4974092;28;20031;-41
2022/06/29 08:56:41;;;;;;;5.80;1.75;;;;;;;28.55;35.27;101331.59;4974392;28;20062;-42
2022/06/29 08:59:09;;;;;;;3.28;1.77;;;;;;;28.92;36.23;101335.16;4974150;28;20526;-42
2022/06/29 09:01:36;;;;;;;2.58;1.63;;;;;;;28.24;33.93;101335.88;4973952;28;20023;-42
2022/06/29 09:04:02;;;;;;;5.45;1.50;;;;;;;27.62;35.43;101336.84;4972788;28;20054;-42
2022/06/29 09:06:27;;;;;;;2.83;1.42;;;;;;;27.57;35.27;101336.13;4974427;28;20186;-42
2022/06/29 09:08:52;;;;;;;6.88;1.50;;;;;;;27.94;34.59;101332.66;4974113;28;20026;-41
2022/06/29 09:11:22;;;;;;;4.78;1.30;;;;;;;28.26;34.09;101323.09;4973832;28;20053;-43
2022/06/29 09:14:28;;;;;;;4.03;1.60;;;;;;;28.16;34.55;101331.22;4973947;28;20097;-42
2022/06/29 09:17:02;;;;;;;6.10;1.45;;;;;;;28.40;33.30;101328.41;4952872;28;20497;-42
2022/06/29 09:19:36;;;;;;;4.50;1.42;;;;;;;27.83;33.39;101332.03;4970921;28;20035;-44
2022/06/29 09:22:02;;;;;;;3.65;1.50;;;;;;;29.30;33.82;101336.78;4976490;28;20449;-43
2022/06/29 09:24:30;;;;;;;2.92;1.27;;;;;;;29.27;32.99;101334.72;4977436;28;20023;-43
2022/06/29 09:26:58;;;;;;;4.28;1.60;;;;;;;29.11;33.17;101336.91;4977335;28;20034;-41
2022/06/29 09:29:26;;;;;;;2.70;1.50;;;;;;;29.12;33.16;101328.66;4977613;28;20052;-42
2022/06/29 09:32:01;;;;;;;4.05;1.30;;;;;;;29.05;33.05;101338.13;4977437;28;20077;-42
2022/06/29 09:34:28;;;;;;;7.00;1.67;;;;;;;28.42;34.38;101339.56;4977811;28;20334;-42
2022/06/29 09:36:57;;;;;;;6.45;1.55;;;;;;;28.52;34.50;101328.75;4977109;28;20051;-43
2022/06/29 09:39:37;;;;;;;5.07;1.50;;;;;;;28.50;33.40;101328.25;4977152;28;20040;-44
2022/06/29 09:42:05;;;;;;;4.10;1.50;;;;;;;28.48;33.21;101331.19;4977125;28;20027;-44
2022/06/29 09:44:30;;;;;;;3.05;1.50;;;;;;;28.71;33.33;101332.09;4977353;28;20031;-42
2022/06/29 09:46:56;;;;;;;4.10;1.60;;;;;;;28.35;34.13;101318.66;4977045;28;20377;-41
2022/06/29 09:49:27;;;;;;;3.40;1.60;;;;;;;29.54;33.63;101320.53;4992012;28;20041;-43
2022/06/29 09:51:57;;;;;;;4.32;1.60;;;;;;;28.87;32.37;101326.47;4977141;28;20030;-44
2022/06/29 09:54:32;;;;;;;3.55;1.60;;;;;;;28.85;33.25;101316.13;4977129;28;20066;-43
2022/06/29 09:56:59;;;;;;;6.20;1.60;;;;;;;29.06;32.26;101323.72;4991941;28;20027;-41
2022/06/29 10:02:37;;;;;;;7.38;1.70;;;;;;;29.23;31.80;101315.88;4976859;28;20041;-43
2022/06/29 10:05:13;;;;;;;6.38;1.60;;;;;;;29.45;31.15;101318.59;4976982;28;20026;-43
2022/06/29 10:07:46;;;;;;;7.03;1.67;;;;;;;29.02;31.74;101315.50;4974993;28;20043;-40
2022/06/29 10:10:16;;;;;;;4.00;1.77;;;;;;;28.80;32.39;101310.94;4976153;28;20098;-43
2022/06/29 10:16:05;;;;;;;6.97;1.58;;;;;;;29.17;32.58;101303.78;4977493;28;20179;-41
2022/06/29 10:18:55;;;;;;;6.00;1.60;;;;;;;29.43;31.76;101307.47;4976323;28;20034;-44
2022/06/29 10:21:25;;;;;;;4.10;1.25;;;;;;;29.53;32.14;101293.13;4976316;28;20023;-39
2022/06/29 10:23:52;;;;;;;4.47;1.50;;;;;;;29.46;31.61;101300.72;4977118;28;20027;-42
2022/06/29 10:26:35;;;;;;;6.40;1.58;;;;;;;29.69;31.67;101288.22;4976827;28;20031;-41
2022/06/29 10:29:09;;;;;;;3.90;1.25;;;;;;;29.87;30.82;101297.13;4975128;28;20437;-43
2022/06/29 10:31:56;;;;;;;4.72;1.75;;;;;;;29.15;31.17;101292.69;4976043;28;20033;-42
2022/06/29 10:34:31;;;;;;;6.53;1.38;;;;;;;28.99;31.15;101298.28;4971898;28;20035;-43
2022/06/29 10:37:02;;;;;;;7.22;1.52;;;;;;;28.94;32.24;101295.72;4975788;28;20046;-43
2022/06/29 10:39:45;;;;;;;4.25;1.50;;;;;;;29.44;32.92;101292.28;4976839;28;20034;-42
2022/06/29 10:45:16;;;;;;;3.83;1.48;;;;;;;28.85;32.29;101286.09;4976389;28;20121;-45
2022/06/29 10:47:48;;;;;;;3.50;1.35;;;;;;;28.71;31.94;101292.19;4976772;28;20109;-42
2022/06/29 10:50:13;;;;;;;;;;;;;;;30.40;29.64;101285.63;4976430;28;20101;-42
2022/06/29 10:52:39;;;;;;;5.27;1.70;;;;;;;30.23;29.84;101278.38;4975709;28;19967;-43
2022/06/29 10:55:05;;;;;;;6.15;1.70;;;;;;;29.06;31.49;101278.47;4975676;28;20035;-44
2022/06/29 10:57:34;;;;;;;4.30;1.50;;;;;;;28.43;32.52;101272.84;4975789;28;20034;-42
2022/06/29 11:00:04;;;;;;;3.40;1.55;;;;;;;28.26;32.10;101275.25;4975684;28;20027;-42
2022/06/29 11:02:30;;;;;;;4.35;1.75;;;;;;;28.44;32.45;101282.38;4975720;28;20474;-44
2022/06/29 11:04:58;;;;;;;3.92;1.50;;;;;;;28.31;32.43;101265.31;4974576;28;20085;-42
2022/06/29 11:12:55;;;;;;;4.07;1.48;;;;;;;28.39;31.85;101265.69;4975240;28;20033;-43
2022/06/29 11:15:48;;;;;;;5.65;1.23;;;;;;;28.02;32.45;101270.88;4974719;28;20057;-44
2022/06/29 11:18:19;;;;;;;6.25;1.52;;;;;;;29.71;31.12;101264.75;4974250;28;20026;-42
2022/06/29 11:20:51;;;;;;;4.25;1.30;;;;;;;29.45;30.34;101251.25;4975179;28;20026;-42
2022/06/29 11:23:24;;;;;;;2.85;1.45;;;;;;;29.81;29.39;101263.72;4989556;28;20385;-43
2022/06/29 11:25:56;;;;;;;2.30;1.13;;;;;;;29.62;29.89;101270.03;4975364;28;20046;-42
2022/06/29 11:28:26;;;;;;;1.95;1.42;;;;;;;29.62;29.72;101253.25;4975887;28;20037;-41
2022/06/29 11:31:04;;;;;;;2.60;1.30;;;;;;;29.88;29.88;101270.19;4990041;28;20081;-41
2022/06/29 11:33:34;;;;;;;3.03;1.38;;;;;;;30.85;28.59;101266.81;4975355;28;20485;-43
2022/06/29 11:36:18;;;;;;;4.13;1.48;;;;;;;29.49;31.18;101260.19;4975479;28;20023;-43
2022/06/29 11:38:49;;;;;;;2.83;1.40;;;;;;;29.19;31.25;101261.69;4975540;28;20551;-45
2022/06/29 11:41:26;;;;;;;5.20;1.50;;;;;;;28.73;32.06;101263.44;4975465;28;20438;-41
2022/06/29 11:44:03;;;;;;;3.22;1.50;;;;;;;29.26;31.26;101247.97;4974978;28;20031;-43
2022/06/29 11:46:31;;;;;;;2.70;1.48;;;;;;;30.56;29.77;101246.00;4975622;28;20382;-43